sensor_id;sensor_type;location;lat;lon;timestamp;temperature;humidity
22153;DHT22;11242;50.536;12.688;2023-05-07T00:01:06;6.90;99.90
22153;DHT22;11242;50.536;12.688;2023-05-07T00:03:32;6.90;99.90
22153;DHT22;11242;50.536;12.688;2023-05-07T00:05:58;6.90;99.90
22153;DHT22;11242;50.536;12.688;2023-05-07T00:08:24;6.90;99.90
22153;DHT22;11242;50.536;12.688;2023-05-07T00:10:49;6.80;99.90
22153;DHT22;11242;50.536;12.688;2023-05-07T00:13:15;6.80;99.90
22153;DHT22;11242;50.536;12.688;2023-05-07T00:15:41;6.70;99.90
22153;DHT22;11242;50.536;12.688;2023-05-07T00:18:06;6.70;99.90
22153;DHT22;11242;50.536;12.688;2023-05-07T00:20:32;6.60;99.90
22153;DHT22;11242;50.536;12.688;2023-05-07T00:22:57;6.60;99.90
22153;DHT22;11242;50.536;12.688;2023-05-07T00:25:23;6.70;99.90
22153;DHT22;11242;50.536;12.688;2023-05-07T00:27:49;6.70;99.90
22153;DHT22;11242;50.536;12.688;2023-05-07T00:30:14;6.60;99.90
22153;DHT22;11242;50.536;12.688;2023-05-07T00:32:40;6.60;99.90
22153;DHT22;11242;50.536;12.688;2023-05-07T00:35:06;6.50;99.90
22153;DHT22;11242;50.536;12.688;2023-05-07T00:37:32;6.50;99.90
22153;DHT22;11242;50.536;12.688;2023-05-07T00:39:58;6.60;99.90
22153;DHT22;11242;50.536;12.688;2023-05-07T00:42:24;6.60;99.90
22153;DHT22;11242;50.536;12.688;2023-05-07T00:44:50;6.60;99.90
22153;DHT22;11242;50.536;12.688;2023-05-07T00:47:16;6.60;99.90
22153;DHT22;11242;50.536;12.688;2023-05-07T00:49:43;6.50;99.90
22153;DHT22;11242;50.536;12.688;2023-05-07T00:52:15;6.50;99.90
22153;DHT22;11242;50.536;12.688;2023-05-07T00:54:42;6.40;99.90
22153;DHT22;11242;50.536;12.688;2023-05-07T00:57:11;6.40;99.90
22153;DHT22;11242;50.536;12.688;2023-05-07T00:59:37;6.30;99.90
22153;DHT22;11242;50.536;12.688;2023-05-07T01:02:03;6.30;99.90
22153;DHT22;11242;50.536;12.688;2023-05-07T01:04:29;6.20;99.90
22153;DHT22;11242;50.536;12.688;2023-05-07T01:06:56;6.10;99.90
22153;DHT22;11242;50.536;12.688;2023-05-07T01:09:24;6.10;99.90
22153;DHT22;11242;50.536;12.688;2023-05-07T01:11:51;6.10;99.90
22153;DHT22;11242;50.536;12.688;2023-05-07T01:14:18;6.10;99.90
22153;DHT22;11242;50.536;12.688;2023-05-07T01:16:44;6.00;99.90
22153;DHT22;11242;50.536;12.688;2023-05-07T01:19:11;6.10;99.90
22153;DHT22;11242;50.536;12.688;2023-05-07T01:21:45;6.10;99.90
22153;DHT22;11242;50.536;12.688;2023-05-07T01:24:12;6.10;99.90
22153;DHT22;11242;50.536;12.688;2023-05-07T01:26:38;6.10;99.90
22153;DHT22;11242;50.536;12.688;2023-05-07T01:29:04;6.20;99.90
22153;DHT22;11242;50.536;12.688;2023-05-07T01:31:30;6.10;99.90
22153;DHT22;11242;50.536;12.688;2023-05-07T01:33:58;6.20;99.90
22153;DHT22;11242;50.536;12.688;2023-05-07T01:36:25;6.10;99.90
22153;DHT22;11242;50.536;12.688;2023-05-07T01:38:52;6.10;99.90
22153;DHT22;11242;50.536;12.688;2023-05-07T01:41:19;6.10;99.90
22153;DHT22;11242;50.536;12.688;2023-05-07T01:43:46;6.10;99.90
22153;DHT22;11242;50.536;12.688;2023-05-07T01:46:13;6.20;99.90
22153;DHT22;11242;50.536;12.688;2023-05-07T01:48:39;6.20;99.90
22153;DHT22;11242;50.536;12.688;2023-05-07T01:51:05;6.20;99.90
22153;DHT22;11242;50.536;12.688;2023-05-07T01:53:38;6.20;99.90
22153;DHT22;11242;50.536;12.688;2023-05-07T01:56:04;6.20;99.90
22153;DHT22;11242;50.536;12.688;2023-05-07T01:58:31;6.20;99.90
22153;DHT22;11242;50.536;12.688;2023-05-07T02:00:56;6.20;99.90
22153;DHT22;11242;50.536;12.688;2023-05-07T02:03:22;6.20;99.90
22153;DHT22;11242;50.536;12.688;2023-05-07T02:05:57;6.20;99.90
22153;DHT22;11242;50.536;12.688;2023-05-07T02:08:30;6.10;99.90
22153;DHT22;11242;50.536;12.688;2023-05-07T02:10:56;6.10;99.90
22153;DHT22;11242;50.536;12.688;2023-05-07T02:13:22;6.10;99.90
22153;DHT22;11242;50.536;12.688;2023-05-07T02:15:49;6.20;99.90
22153;DHT22;11242;50.536;12.688;2023-05-07T02:18:16;6.20;99.90
22153;DHT22;11242;50.536;12.688;2023-05-07T02:20:42;6.20;99.90
22153;DHT22;11242;50.536;12.688;2023-05-07T02:23:08;6.30;99.90
22153;DHT22;11242;50.536;12.688;2023-05-07T02:25:34;6.30;99.90
22153;DHT22;11242;50.536;12.688;2023-05-07T02:27:59;6.20;99.90
22153;DHT22;11242;50.536;12.688;2023-05-07T02:30:40;6.20;99.90
22153;DHT22;11242;50.536;12.688;2023-05-07T02:33:06;6.20;99.90
22153;DHT22;11242;50.536;12.688;2023-05-07T02:35:33;6.30;99.90
22153;DHT22;11242;50.536;12.688;2023-05-07T02:37:59;6.30;99.90
22153;DHT22;11242;50.536;12.688;2023-05-07T02:40:25;6.30;99.90
22153;DHT22;11242;50.536;12.688;2023-05-07T02:42:51;6.40;99.90
22153;DHT22;11242;50.536;12.688;2023-05-07T02:45:17;6.40;99.90
22153;DHT22;11242;50.536;12.688;2023-05-07T02:47:43;6.50;99.90
22153;DHT22;11242;50.536;12.688;2023-05-07T02:50:09;6.60;99.90
22153;DHT22;11242;50.536;12.688;2023-05-07T02:52:35;6.60;99.90
22153;DHT22;11242;50.536;12.688;2023-05-07T02:55:01;6.70;99.90
22153;DHT22;11242;50.536;12.688;2023-05-07T02:57:26;6.70;99.90
22153;DHT22;11242;50.536;12.688;2023-05-07T02:59:52;6.80;99.90
22153;DHT22;11242;50.536;12.688;2023-05-07T03:02:19;6.80;99.90
22153;DHT22;11242;50.536;12.688;2023-05-07T03:04:45;6.80;99.90
22153;DHT22;11242;50.536;12.688;2023-05-07T03:07:11;6.80;99.90
22153;DHT22;11242;50.536;12.688;2023-05-07T03:09:36;6.80;99.90
22153;DHT22;11242;50.536;12.688;2023-05-07T03:12:02;6.80;99.90
22153;DHT22;11242;50.536;12.688;2023-05-07T03:14:28;6.70;99.90
22153;DHT22;11242;50.536;12.688;2023-05-07T03:16:53;6.70;99.90
22153;DHT22;11242;50.536;12.688;2023-05-07T03:19:19;6.70;99.90
22153;DHT22;11242;50.536;12.688;2023-05-07T03:21:45;6.70;99.90
22153;DHT22;11242;50.536;12.688;2023-05-07T03:24:10;6.70;99.90
22153;DHT22;11242;50.536;12.688;2023-05-07T03:26:36;6.80;99.90
22153;DHT22;11242;50.536;12.688;2023-05-07T03:29:02;6.90;99.90
22153;DHT22;11242;50.536;12.688;2023-05-07T03:31:27;7.00;99.90
22153;DHT22;11242;50.536;12.688;2023-05-07T03:33:55;7.00;99.90
22153;DHT22;11242;50.536;12.688;2023-05-07T03:36:22;7.00;99.90
22153;DHT22;11242;50.536;12.688;2023-05-07T03:38:48;6.90;99.90
22153;DHT22;11242;50.536;12.688;2023-05-07T03:41:17;6.90;99.90
22153;DHT22;11242;50.536;12.688;2023-05-07T03:43:44;6.80;99.90
22153;DHT22;11242;50.536;12.688;2023-05-07T03:46:11;6.60;99.90
22153;DHT22;11242;50.536;12.688;2023-05-07T03:48:36;6.60;99.90
22153;DHT22;11242;50.536;12.688;2023-05-07T03:51:02;6.50;99.90
22153;DHT22;11242;50.536;12.688;2023-05-07T03:53:31;6.60;99.90
22153;DHT22;11242;50.536;12.688;2023-05-07T03:55:57;6.60;99.90
22153;DHT22;11242;50.536;12.688;2023-05-07T03:58:23;6.70;99.90
22153;DHT22;11242;50.536;12.688;2023-05-07T04:00:49;6.80;99.90
22153;DHT22;11242;50.536;12.688;2023-05-07T04:03:23;6.80;99.90
22153;DHT22;11242;50.536;12.688;2023-05-07T04:05:49;6.80;99.90
22153;DHT22;11242;50.536;12.688;2023-05-07T04:08:15;6.70;99.90
22153;DHT22;11242;50.536;12.688;2023-05-07T04:10:45;6.80;99.90
22153;DHT22;11242;50.536;12.688;2023-05-07T04:13:12;6.80;99.90
22153;DHT22;11242;50.536;12.688;2023-05-07T04:15:38;6.80;99.90
22153;DHT22;11242;50.536;12.688;2023-05-07T04:18:07;6.90;99.90
22153;DHT22;11242;50.536;12.688;2023-05-07T04:20:34;7.10;99.90
22153;DHT22;11242;50.536;12.688;2023-05-07T04:23:02;7.10;99.90
22153;DHT22;11242;50.536;12.688;2023-05-07T04:25:28;7.10;99.90
22153;DHT22;11242;50.536;12.688;2023-05-07T04:28:01;7.10;99.90
22153;DHT22;11242;50.536;12.688;2023-05-07T04:30:28;7.20;99.90
22153;DHT22;11242;50.536;12.688;2023-05-07T04:32:53;7.30;99.90
22153;DHT22;11242;50.536;12.688;2023-05-07T04:35:20;7.50;99.90
22153;DHT22;11242;50.536;12.688;2023-05-07T04:37:46;7.70;99.90
22153;DHT22;11242;50.536;12.688;2023-05-07T04:40:12;7.80;99.90
22153;DHT22;11242;50.536;12.688;2023-05-07T04:42:38;8.10;99.90
22153;DHT22;11242;50.536;12.688;2023-05-07T04:45:04;8.50;99.90
22153;DHT22;11242;50.536;12.688;2023-05-07T04:47:32;8.70;99.90
22153;DHT22;11242;50.536;12.688;2023-05-07T04:50:00;8.70;99.90
22153;DHT22;11242;50.536;12.688;2023-05-07T04:52:26;8.80;99.90
22153;DHT22;11242;50.536;12.688;2023-05-07T04:54:52;8.90;99.90
22153;DHT22;11242;50.536;12.688;2023-05-07T04:57:18;9.00;99.90
22153;DHT22;11242;50.536;12.688;2023-05-07T04:59:44;9.00;99.90
22153;DHT22;11242;50.536;12.688;2023-05-07T05:02:10;8.90;99.90
22153;DHT22;11242;50.536;12.688;2023-05-07T05:04:36;9.10;99.90
22153;DHT22;11242;50.536;12.688;2023-05-07T05:07:03;9.50;99.90
22153;DHT22;11242;50.536;12.688;2023-05-07T05:09:30;9.70;99.90
22153;DHT22;11242;50.536;12.688;2023-05-07T05:11:55;9.60;99.90
22153;DHT22;11242;50.536;12.688;2023-05-07T05:14:21;9.40;99.90
22153;DHT22;11242;50.536;12.688;2023-05-07T05:16:47;9.30;99.90
22153;DHT22;11242;50.536;12.688;2023-05-07T05:19:12;9.70;99.90
22153;DHT22;11242;50.536;12.688;2023-05-07T05:21:39;10.00;99.90
22153;DHT22;11242;50.536;12.688;2023-05-07T05:24:08;10.30;99.90
22153;DHT22;11242;50.536;12.688;2023-05-07T05:26:34;10.60;99.90
22153;DHT22;11242;50.536;12.688;2023-05-07T05:29:00;10.90;99.90
22153;DHT22;11242;50.536;12.688;2023-05-07T05:31:28;11.00;99.90
22153;DHT22;11242;50.536;12.688;2023-05-07T05:33:54;10.90;99.90
22153;DHT22;11242;50.536;12.688;2023-05-07T05:36:19;10.70;99.90
22153;DHT22;11242;50.536;12.688;2023-05-07T05:38:46;10.80;99.90
22153;DHT22;11242;50.536;12.688;2023-05-07T05:41:13;10.60;99.90
22153;DHT22;11242;50.536;12.688;2023-05-07T05:43:38;10.50;99.90
22153;DHT22;11242;50.536;12.688;2023-05-07T05:46:04;10.40;99.90
22153;DHT22;11242;50.536;12.688;2023-05-07T05:48:30;10.70;99.90
22153;DHT22;11242;50.536;12.688;2023-05-07T05:50:57;11.00;99.90
22153;DHT22;11242;50.536;12.688;2023-05-07T05:53:23;11.30;99.90
22153;DHT22;11242;50.536;12.688;2023-05-07T05:55:49;11.60;99.90
22153;DHT22;11242;50.536;12.688;2023-05-07T05:58:15;12.00;99.90
22153;DHT22;11242;50.536;12.688;2023-05-07T06:00:45;13.30;99.90
22153;DHT22;11242;50.536;12.688;2023-05-07T06:03:11;13.20;99.90
22153;DHT22;11242;50.536;12.688;2023-05-07T06:05:37;12.70;99.90
22153;DHT22;11242;50.536;12.688;2023-05-07T06:08:03;12.30;99.90
22153;DHT22;11242;50.536;12.688;2023-05-07T06:10:32;12.30;99.90
22153;DHT22;11242;50.536;12.688;2023-05-07T06:12:57;12.70;99.90
22153;DHT22;11242;50.536;12.688;2023-05-07T06:15:23;12.80;99.90
22153;DHT22;11242;50.536;12.688;2023-05-07T06:17:49;13.10;99.90
22153;DHT22;11242;50.536;12.688;2023-05-07T06:20:15;13.10;99.90
22153;DHT22;11242;50.536;12.688;2023-05-07T06:22:41;12.70;99.90
22153;DHT22;11242;50.536;12.688;2023-05-07T06:25:08;12.60;99.90
22153;DHT22;11242;50.536;12.688;2023-05-07T06:27:34;13.10;99.90
22153;DHT22;11242;50.536;12.688;2023-05-07T06:30:00;13.10;99.90
22153;DHT22;11242;50.536;12.688;2023-05-07T06:32:25;13.20;99.90
22153;DHT22;11242;50.536;12.688;2023-05-07T06:34:51;14.10;99.90
22153;DHT22;11242;50.536;12.688;2023-05-07T06:37:17;16.10;99.90
22153;DHT22;11242;50.536;12.688;2023-05-07T06:40:00;16.80;99.90
22153;DHT22;11242;50.536;12.688;2023-05-07T06:42:25;17.90;99.90
22153;DHT22;11242;50.536;12.688;2023-05-07T06:44:57;19.20;99.90
22153;DHT22;11242;50.536;12.688;2023-05-07T06:47:24;20.60;98.50
22153;DHT22;11242;50.536;12.688;2023-05-07T06:49:53;20.10;95.00
22153;DHT22;11242;50.536;12.688;2023-05-07T06:52:21;18.90;98.50
22153;DHT22;11242;50.536;12.688;2023-05-07T06:54:49;19.40;96.30
22153;DHT22;11242;50.536;12.688;2023-05-07T06:57:16;19.80;95.90
22153;DHT22;11242;50.536;12.688;2023-05-07T06:59:42;19.20;95.20
22153;DHT22;11242;50.536;12.688;2023-05-07T07:02:08;17.60;98.00
22153;DHT22;11242;50.536;12.688;2023-05-07T07:04:34;17.40;99.80
22153;DHT22;11242;50.536;12.688;2023-05-07T07:07:04;17.40;99.90
22153;DHT22;11242;50.536;12.688;2023-05-07T07:09:30;17.10;99.90
22153;DHT22;11242;50.536;12.688;2023-05-07T07:11:56;16.50;99.90
22153;DHT22;11242;50.536;12.688;2023-05-07T07:14:23;15.60;99.90
22153;DHT22;11242;50.536;12.688;2023-05-07T07:16:50;16.00;99.90
22153;DHT22;11242;50.536;12.688;2023-05-07T07:19:18;16.50;99.90
22153;DHT22;11242;50.536;12.688;2023-05-07T07:21:47;16.60;99.90
22153;DHT22;11242;50.536;12.688;2023-05-07T07:24:13;16.50;99.90
22153;DHT22;11242;50.536;12.688;2023-05-07T07:26:44;16.80;99.90
22153;DHT22;11242;50.536;12.688;2023-05-07T07:29:10;16.50;99.90
22153;DHT22;11242;50.536;12.688;2023-05-07T07:31:36;16.90;99.90
22153;DHT22;11242;50.536;12.688;2023-05-07T07:34:01;16.30;99.90
22153;DHT22;11242;50.536;12.688;2023-05-07T07:36:27;15.80;99.90
22153;DHT22;11242;50.536;12.688;2023-05-07T07:38:53;17.30;99.90
22153;DHT22;11242;50.536;12.688;2023-05-07T07:41:19;19.90;99.10
22153;DHT22;11242;50.536;12.688;2023-05-07T07:43:45;22.00;91.80
22153;DHT22;11242;50.536;12.688;2023-05-07T07:46:12;22.30;87.70
22153;DHT22;11242;50.536;12.688;2023-05-07T07:48:38;20.30;89.60
22153;DHT22;11242;50.536;12.688;2023-05-07T07:51:04;19.60;91.10
22153;DHT22;11242;50.536;12.688;2023-05-07T07:53:30;19.60;91.60
22153;DHT22;11242;50.536;12.688;2023-05-07T07:55:55;21.60;86.30
22153;DHT22;11242;50.536;12.688;2023-05-07T07:58:23;22.40;82.00
22153;DHT22;11242;50.536;12.688;2023-05-07T08:00:50;21.40;84.60
22153;DHT22;11242;50.536;12.688;2023-05-07T08:03:16;20.90;86.80
22153;DHT22;11242;50.536;12.688;2023-05-07T08:05:46;20.80;84.20
22153;DHT22;11242;50.536;12.688;2023-05-07T08:08:11;18.90;87.60
22153;DHT22;11242;50.536;12.688;2023-05-07T08:10:38;19.00;90.00
22153;DHT22;11242;50.536;12.688;2023-05-07T08:13:09;19.80;84.60
22153;DHT22;11242;50.536;12.688;2023-05-07T08:15:37;21.10;82.60
22153;DHT22;11242;50.536;12.688;2023-05-07T08:18:03;21.90;81.30
22153;DHT22;11242;50.536;12.688;2023-05-07T08:20:29;21.60;79.20
22153;DHT22;11242;50.536;12.688;2023-05-07T08:22:56;20.90;79.10
22153;DHT22;11242;50.536;12.688;2023-05-07T08:25:22;20.00;82.50
22153;DHT22;11242;50.536;12.688;2023-05-07T08:27:47;20.20;83.60
22153;DHT22;11242;50.536;12.688;2023-05-07T08:30:14;21.10;82.80
22153;DHT22;11242;50.536;12.688;2023-05-07T08:32:40;21.10;78.30
22153;DHT22;11242;50.536;12.688;2023-05-07T08:35:06;20.60;81.80
22153;DHT22;11242;50.536;12.688;2023-05-07T08:37:32;21.00;76.80
22153;DHT22;11242;50.536;12.688;2023-05-07T08:39:58;21.90;76.30
22153;DHT22;11242;50.536;12.688;2023-05-07T08:42:28;23.10;74.00
22153;DHT22;11242;50.536;12.688;2023-05-07T08:44:57;23.80;70.90
22153;DHT22;11242;50.536;12.688;2023-05-07T08:47:29;23.40;69.60
22153;DHT22;11242;50.536;12.688;2023-05-07T08:49:58;22.40;71.50
22153;DHT22;11242;50.536;12.688;2023-05-07T08:52:24;21.60;74.30
22153;DHT22;11242;50.536;12.688;2023-05-07T08:54:50;21.10;74.10
22153;DHT22;11242;50.536;12.688;2023-05-07T08:57:16;20.00;77.60
22153;DHT22;11242;50.536;12.688;2023-05-07T08:59:43;20.00;78.60
22153;DHT22;11242;50.536;12.688;2023-05-07T09:02:10;20.00;78.40
22153;DHT22;11242;50.536;12.688;2023-05-07T09:04:36;19.40;82.00
22153;DHT22;11242;50.536;12.688;2023-05-07T09:07:02;19.30;81.50
22153;DHT22;11242;50.536;12.688;2023-05-07T09:09:34;19.60;80.60
22153;DHT22;11242;50.536;12.688;2023-05-07T09:12:02;19.60;79.90
22153;DHT22;11242;50.536;12.688;2023-05-07T09:14:31;20.60;78.20
22153;DHT22;11242;50.536;12.688;2023-05-07T09:16:58;20.60;76.50
22153;DHT22;11242;50.536;12.688;2023-05-07T09:19:24;20.90;76.80
22153;DHT22;11242;50.536;12.688;2023-05-07T09:22:02;21.40;76.70
22153;DHT22;11242;50.536;12.688;2023-05-07T09:24:31;21.60;72.50
22153;DHT22;11242;50.536;12.688;2023-05-07T09:27:02;20.70;75.10
22153;DHT22;11242;50.536;12.688;2023-05-07T09:29:28;20.60;76.00
22153;DHT22;11242;50.536;12.688;2023-05-07T09:31:56;20.40;76.40
22153;DHT22;11242;50.536;12.688;2023-05-07T09:34:21;19.70;79.60
22153;DHT22;11242;50.536;12.688;2023-05-07T09:36:47;19.60;81.10
22153;DHT22;11242;50.536;12.688;2023-05-07T09:39:13;19.80;78.60
22153;DHT22;11242;50.536;12.688;2023-05-07T09:41:48;19.80;80.60
22153;DHT22;11242;50.536;12.688;2023-05-07T09:44:25;19.70;80.70
22153;DHT22;11242;50.536;12.688;2023-05-07T09:46:54;19.50;82.50
22153;DHT22;11242;50.536;12.688;2023-05-07T09:49:29;18.90;85.00
22153;DHT22;11242;50.536;12.688;2023-05-07T09:52:01;18.60;85.30
22153;DHT22;11242;50.536;12.688;2023-05-07T09:54:30;18.80;86.20
22153;DHT22;11242;50.536;12.688;2023-05-07T09:56:58;18.80;86.20
22153;DHT22;11242;50.536;12.688;2023-05-07T09:59:27;18.60;87.10
22153;DHT22;11242;50.536;12.688;2023-05-07T10:01:57;18.60;86.10
22153;DHT22;11242;50.536;12.688;2023-05-07T10:04:24;18.50;87.30
22153;DHT22;11242;50.536;12.688;2023-05-07T10:06:51;18.10;88.20
22153;DHT22;11242;50.536;12.688;2023-05-07T10:09:18;18.10;88.40
22153;DHT22;11242;50.536;12.688;2023-05-07T10:11:44;17.90;89.30
22153;DHT22;11242;50.536;12.688;2023-05-07T10:14:11;17.80;88.60
22153;DHT22;11242;50.536;12.688;2023-05-07T10:16:40;17.60;90.30
22153;DHT22;11242;50.536;12.688;2023-05-07T10:19:10;17.40;91.60
22153;DHT22;11242;50.536;12.688;2023-05-07T10:21:37;17.30;92.20
22153;DHT22;11242;50.536;12.688;2023-05-07T10:24:37;17.40;91.80
22153;DHT22;11242;50.536;12.688;2023-05-07T10:26:59;17.30;92.20
22153;DHT22;11242;50.536;12.688;2023-05-07T10:29:49;17.30;92.70
22153;DHT22;11242;50.536;12.688;2023-05-07T10:32:39;17.10;93.40
22153;DHT22;11242;50.536;12.688;2023-05-07T10:35:16;17.10;93.40
22153;DHT22;11242;50.536;12.688;2023-05-07T10:37:44;17.20;92.80
22153;DHT22;11242;50.536;12.688;2023-05-07T10:40:11;17.10;93.10
22153;DHT22;11242;50.536;12.688;2023-05-07T10:42:37;17.10;93.20
22153;DHT22;11242;50.536;12.688;2023-05-07T10:45:15;17.20;93.10
22153;DHT22;11242;50.536;12.688;2023-05-07T10:48:07;17.40;93.00
22153;DHT22;11242;50.536;12.688;2023-05-07T10:50:34;17.50;92.60
22153;DHT22;11242;50.536;12.688;2023-05-07T10:55:50;17.50;92.80
22153;DHT22;11242;50.536;12.688;2023-05-07T10:58:27;17.40;93.10
22153;DHT22;11242;50.536;12.688;2023-05-07T11:01:01;17.60;93.00
22153;DHT22;11242;50.536;12.688;2023-05-07T11:03:33;17.60;92.20
22153;DHT22;11242;50.536;12.688;2023-05-07T11:06:11;17.60;93.00
22153;DHT22;11242;50.536;12.688;2023-05-07T11:08:57;17.30;93.60
22153;DHT22;11242;50.536;12.688;2023-05-07T11:11:49;17.40;94.30
22153;DHT22;11242;50.536;12.688;2023-05-07T11:14:44;17.40;94.90
22153;DHT22;11242;50.536;12.688;2023-05-07T11:17:21;17.50;94.90
22153;DHT22;11242;50.536;12.688;2023-05-07T11:19:55;17.50;94.30
22153;DHT22;11242;50.536;12.688;2023-05-07T11:22:37;17.40;94.70
22153;DHT22;11242;50.536;12.688;2023-05-07T11:25:10;17.70;94.90
22153;DHT22;11242;50.536;12.688;2023-05-07T11:27:42;17.70;94.60
22153;DHT22;11242;50.536;12.688;2023-05-07T11:30:09;17.70;94.80
22153;DHT22;11242;50.536;12.688;2023-05-07T11:32:35;17.80;96.00
22153;DHT22;11242;50.536;12.688;2023-05-07T11:35:01;17.80;96.00
22153;DHT22;11242;50.536;12.688;2023-05-07T11:37:27;18.00;95.10
22153;DHT22;11242;50.536;12.688;2023-05-07T11:42:37;18.30;95.20
22153;DHT22;11242;50.536;12.688;2023-05-07T11:45:04;18.20;95.10
22153;DHT22;11242;50.536;12.688;2023-05-07T11:47:31;18.20;93.60
22153;DHT22;11242;50.536;12.688;2023-05-07T11:49:57;18.10;94.30
22153;DHT22;11242;50.536;12.688;2023-05-07T11:52:27;18.20;94.20
22153;DHT22;11242;50.536;12.688;2023-05-07T11:54:57;18.10;94.10
22153;DHT22;11242;50.536;12.688;2023-05-07T11:57:24;18.00;94.80
22153;DHT22;11242;50.536;12.688;2023-05-07T11:59:57;18.30;95.40
22153;DHT22;11242;50.536;12.688;2023-05-07T12:02:24;18.30;95.30
22153;DHT22;11242;50.536;12.688;2023-05-07T12:04:50;18.60;94.50
22153;DHT22;11242;50.536;12.688;2023-05-07T12:07:16;18.80;95.10
22153;DHT22;11242;50.536;12.688;2023-05-07T12:09:44;18.70;95.00
22153;DHT22;11242;50.536;12.688;2023-05-07T12:12:09;18.40;95.50
22153;DHT22;11242;50.536;12.688;2023-05-07T12:14:42;18.50;95.40
22153;DHT22;11242;50.536;12.688;2023-05-07T12:17:09;18.30;95.70
22153;DHT22;11242;50.536;12.688;2023-05-07T12:19:36;18.40;96.10
22153;DHT22;11242;50.536;12.688;2023-05-07T12:22:03;18.70;96.00
22153;DHT22;11242;50.536;12.688;2023-05-07T12:24:29;18.60;95.60
22153;DHT22;11242;50.536;12.688;2023-05-07T12:26:54;18.60;96.40
22153;DHT22;11242;50.536;12.688;2023-05-07T12:29:23;18.70;96.30
22153;DHT22;11242;50.536;12.688;2023-05-07T12:31:50;18.80;96.20
22153;DHT22;11242;50.536;12.688;2023-05-07T12:34:15;19.00;94.80
22153;DHT22;11242;50.536;12.688;2023-05-07T12:36:41;18.90;95.30
22153;DHT22;11242;50.536;12.688;2023-05-07T12:39:07;18.70;95.50
22153;DHT22;11242;50.536;12.688;2023-05-07T12:41:58;18.20;95.60
22153;DHT22;11242;50.536;12.688;2023-05-07T12:44:33;17.80;96.40
22153;DHT22;11242;50.536;12.688;2023-05-07T12:47:02;17.80;97.00
22153;DHT22;11242;50.536;12.688;2023-05-07T12:49:28;18.00;96.70
22153;DHT22;11242;50.536;12.688;2023-05-07T12:51:54;18.00;96.80
22153;DHT22;11242;50.536;12.688;2023-05-07T12:54:31;17.80;97.20
22153;DHT22;11242;50.536;12.688;2023-05-07T12:57:09;18.00;97.30
22153;DHT22;11242;50.536;12.688;2023-05-07T12:59:37;17.90;97.30
22153;DHT22;11242;50.536;12.688;2023-05-07T13:02:03;17.80;97.50
22153;DHT22;11242;50.536;12.688;2023-05-07T13:04:28;17.90;98.60
22153;DHT22;11242;50.536;12.688;2023-05-07T13:06:54;18.20;98.30
22153;DHT22;11242;50.536;12.688;2023-05-07T13:09:20;18.10;98.20
22153;DHT22;11242;50.536;12.688;2023-05-07T13:11:45;18.20;98.40
22153;DHT22;11242;50.536;12.688;2023-05-07T13:14:11;18.20;97.40
22153;DHT22;11242;50.536;12.688;2023-05-07T13:16:37;18.60;98.10
22153;DHT22;11242;50.536;12.688;2023-05-07T13:19:02;18.60;98.70
22153;DHT22;11242;50.536;12.688;2023-05-07T13:21:28;18.70;98.00
22153;DHT22;11242;50.536;12.688;2023-05-07T13:23:55;18.80;98.10
22153;DHT22;11242;50.536;12.688;2023-05-07T13:26:21;18.70;97.00
22153;DHT22;11242;50.536;12.688;2023-05-07T13:28:47;18.50;96.90
22153;DHT22;11242;50.536;12.688;2023-05-07T13:31:14;18.40;97.40
22153;DHT22;11242;50.536;12.688;2023-05-07T13:33:39;18.40;97.00
22153;DHT22;11242;50.536;12.688;2023-05-07T13:36:05;18.20;97.70
22153;DHT22;11242;50.536;12.688;2023-05-07T13:38:31;18.20;97.90
22153;DHT22;11242;50.536;12.688;2023-05-07T13:40:57;17.90;99.00
22153;DHT22;11242;50.536;12.688;2023-05-07T13:43:24;17.80;99.10
22153;DHT22;11242;50.536;12.688;2023-05-07T13:45:50;17.80;99.60
22153;DHT22;11242;50.536;12.688;2023-05-07T13:48:15;17.50;99.90
22153;DHT22;11242;50.536;12.688;2023-05-07T13:50:41;17.50;99.90
22153;DHT22;11242;50.536;12.688;2023-05-07T13:53:07;17.70;99.90
22153;DHT22;11242;50.536;12.688;2023-05-07T13:55:33;17.90;99.90
22153;DHT22;11242;50.536;12.688;2023-05-07T13:58:00;17.90;99.90
22153;DHT22;11242;50.536;12.688;2023-05-07T14:00:27;18.00;99.90
22153;DHT22;11242;50.536;12.688;2023-05-07T14:02:53;18.00;99.90
22153;DHT22;11242;50.536;12.688;2023-05-07T14:05:20;18.20;99.40
22153;DHT22;11242;50.536;12.688;2023-05-07T14:07:46;18.10;99.60
22153;DHT22;11242;50.536;12.688;2023-05-07T14:10:13;18.10;99.90
22153;DHT22;11242;50.536;12.688;2023-05-07T14:12:38;18.00;99.70
22153;DHT22;11242;50.536;12.688;2023-05-07T14:15:04;18.10;99.90
22153;DHT22;11242;50.536;12.688;2023-05-07T14:17:30;18.10;99.90
22153;DHT22;11242;50.536;12.688;2023-05-07T14:19:57;17.90;99.90
22153;DHT22;11242;50.536;12.688;2023-05-07T14:22:23;17.80;99.90
22153;DHT22;11242;50.536;12.688;2023-05-07T14:24:49;17.80;99.90
22153;DHT22;11242;50.536;12.688;2023-05-07T14:27:15;17.70;99.90
22153;DHT22;11242;50.536;12.688;2023-05-07T14:29:41;17.80;99.90
22153;DHT22;11242;50.536;12.688;2023-05-07T14:32:07;18.00;99.90
22153;DHT22;11242;50.536;12.688;2023-05-07T14:34:33;17.70;99.90
22153;DHT22;11242;50.536;12.688;2023-05-07T14:36:59;17.80;99.90
22153;DHT22;11242;50.536;12.688;2023-05-07T14:39:25;17.60;99.70
22153;DHT22;11242;50.536;12.688;2023-05-07T14:41:51;17.60;99.90
22153;DHT22;11242;50.536;12.688;2023-05-07T14:44:17;17.80;99.00
22153;DHT22;11242;50.536;12.688;2023-05-07T14:46:42;17.50;98.90
22153;DHT22;11242;50.536;12.688;2023-05-07T14:49:08;17.50;98.80
22153;DHT22;11242;50.536;12.688;2023-05-07T14:51:41;17.50;98.70
22153;DHT22;11242;50.536;12.688;2023-05-07T14:54:07;17.50;99.10
22153;DHT22;11242;50.536;12.688;2023-05-07T14:56:34;17.40;99.50
22153;DHT22;11242;50.536;12.688;2023-05-07T14:59:00;17.10;99.10
22153;DHT22;11242;50.536;12.688;2023-05-07T15:01:26;17.20;99.10
22153;DHT22;11242;50.536;12.688;2023-05-07T15:03:51;17.30;98.20
22153;DHT22;11242;50.536;12.688;2023-05-07T15:06:17;17.30;98.30
22153;DHT22;11242;50.536;12.688;2023-05-07T15:08:42;17.30;98.00
22153;DHT22;11242;50.536;12.688;2023-05-07T15:11:08;17.40;97.80
22153;DHT22;11242;50.536;12.688;2023-05-07T15:13:33;17.50;97.40
22153;DHT22;11242;50.536;12.688;2023-05-07T15:15:59;17.30;97.60
22153;DHT22;11242;50.536;12.688;2023-05-07T15:18:25;17.10;98.20
22153;DHT22;11242;50.536;12.688;2023-05-07T15:20:50;16.80;98.20
22153;DHT22;11242;50.536;12.688;2023-05-07T15:23:16;16.50;98.90
22153;DHT22;11242;50.536;12.688;2023-05-07T15:25:45;16.40;99.80
22153;DHT22;11242;50.536;12.688;2023-05-07T15:28:11;16.10;99.70